createdAt,value
2018-06-27T00:00:44.354Z,7.53
2018-06-27T00:03:13.288Z,7.12
2018-06-27T00:05:42.213Z,8.13
2018-06-27T00:08:11.146Z,6.28
2018-06-27T00:10:40.338Z,6.65
2018-06-27T00:13:09.306Z,6.87
2018-06-27T00:15:38.350Z,8.05
2018-06-27T00:18:08.124Z,7.30
2018-06-27T00:20:36.994Z,7.75
2018-06-27T00:23:05.930Z,6.80
2018-06-27T00:25:34.858Z,7.55
2018-06-27T00:28:03.782Z,6.47
2018-06-27T00:30:32.719Z,6.58
2018-06-27T00:33:01.596Z,6.80
2018-06-27T00:35:30.483Z,7.08
2018-06-27T00:37:59.359Z,6.30
2018-06-27T00:40:28.238Z,7.15
2018-06-27T00:42:57.143Z,6.75
2018-06-27T00:45:26.022Z,7.55
2018-06-27T00:47:54.902Z,7.58
2018-06-27T00:50:23.798Z,8.83
2018-06-27T00:52:52.678Z,7.22
2018-06-27T00:55:21.566Z,6.55
2018-06-27T00:57:50.450Z,7.12
2018-06-27T01:00:19.370Z,7.62
2018-06-27T01:02:48.282Z,6.30
2018-06-27T01:05:17.205Z,6.95
2018-06-27T01:07:45.817Z,6.42
2018-06-27T01:10:14.632Z,7.03
2018-06-27T01:12:43.525Z,6.50
2018-06-27T01:15:12.406Z,7.10
2018-06-27T01:17:41.406Z,7.17
2018-06-27T01:20:10.403Z,8.40
2018-06-27T01:22:39.269Z,7.85
2018-06-27T01:25:08.186Z,7.60
2018-06-27T01:27:37.082Z,6.75
2018-06-27T01:30:06.235Z,7.37
2018-06-27T01:32:35.089Z,9.10
2018-06-27T01:35:04.054Z,6.85
2018-06-27T01:37:33.001Z,7.90
2018-06-27T01:40:01.955Z,7.15
2018-06-27T01:42:30.913Z,6.58
2018-06-27T01:44:59.836Z,6.33
2018-06-27T01:47:28.722Z,8.48
2018-06-27T01:49:57.942Z,7.80
2018-06-27T01:52:26.806Z,7.20
2018-06-27T01:54:55.709Z,6.55
2018-06-27T01:57:24.586Z,6.87
2018-06-27T01:59:53.474Z,5.50
2018-06-27T02:02:22.350Z,8.35
2018-06-27T02:04:51.307Z,6.80
2018-06-27T02:07:20.250Z,7.97
2018-06-27T02:09:49.196Z,7.90
2018-06-27T02:12:18.111Z,7.00
2018-06-27T02:14:47.027Z,6.92
2018-06-27T02:17:16.066Z,7.83
2018-06-27T02:19:44.963Z,9.95
2018-06-27T02:22:13.877Z,6.78
2018-06-27T02:24:42.772Z,7.22
2018-06-27T02:27:11.722Z,6.62
2018-06-27T02:29:40.638Z,8.38
2018-06-27T02:32:09.530Z,7.72
2018-06-27T02:34:38.421Z,6.50
2018-06-27T02:37:07.334Z,8.53
2018-06-27T02:39:36.223Z,6.28
2018-06-27T02:42:05.100Z,6.20
2018-06-27T02:44:33.978Z,6.72
2018-06-27T02:47:02.871Z,6.35
2018-06-27T02:49:31.802Z,6.00
2018-06-27T02:52:00.670Z,6.03
2018-06-27T02:54:29.581Z,6.62
2018-06-27T02:56:58.458Z,5.92
2018-06-27T02:59:27.343Z,5.62
2018-06-27T03:01:56.207Z,6.40
2018-06-27T03:04:25.100Z,5.70
2018-06-27T03:06:53.988Z,5.67
2018-06-27T03:09:22.858Z,5.33
2018-06-27T03:11:51.770Z,5.70
2018-06-27T03:14:20.710Z,6.97
2018-06-27T03:16:49.635Z,4.85
2018-06-27T03:19:18.522Z,5.75
2018-06-27T03:21:47.472Z,6.30
2018-06-27T03:24:16.385Z,5.85
2018-06-27T03:26:45.272Z,6.30
2018-06-27T03:29:14.146Z,6.45
2018-06-27T03:31:43.034Z,5.55
2018-06-27T03:34:11.915Z,7.92
2018-06-27T03:36:40.882Z,7.12
2018-06-27T03:39:10.206Z,5.30
2018-06-27T03:41:39.107Z,5.70
2018-06-27T03:44:07.995Z,5.95
2018-06-27T03:46:36.897Z,4.97
2018-06-27T03:49:05.977Z,7.55
2018-06-27T03:51:34.862Z,5.53
2018-06-27T03:54:03.775Z,5.37
2018-06-27T03:58:54.053Z,5.95
2018-06-27T04:01:22.961Z,5.00
2018-06-27T04:03:51.905Z,5.28
2018-06-27T04:06:20.863Z,6.85
2018-06-27T04:08:49.762Z,5.53
2018-06-27T04:11:18.714Z,5.25
2018-06-27T04:13:47.655Z,5.80
2018-06-27T04:16:16.601Z,5.20
2018-06-27T04:18:45.538Z,4.40
2018-06-27T04:21:14.454Z,5.97
2018-06-27T04:23:43.390Z,5.67
2018-06-27T04:26:12.362Z,5.50
2018-06-27T04:28:41.369Z,5.08
2018-06-27T04:31:10.319Z,4.92
2018-06-27T04:33:39.190Z,5.15
2018-06-27T04:36:08.166Z,4.72
2018-06-27T04:38:36.978Z,4.45
2018-06-27T04:41:06.040Z,5.75
2018-06-27T04:43:34.878Z,4.47
2018-06-27T04:46:03.813Z,4.28
2018-06-27T04:48:32.706Z,3.22
2018-06-27T04:51:01.609Z,3.10
2018-06-27T04:53:30.494Z,3.87
2018-06-27T04:55:59.431Z,4.40
2018-06-27T04:58:28.301Z,3.85
2018-06-27T05:00:57.210Z,4.30
2018-06-27T05:03:26.154Z,4.10
2018-06-27T05:05:55.060Z,4.17
2018-06-27T05:08:23.976Z,4.12
2018-06-27T05:10:52.886Z,6.17
2018-06-27T05:13:21.902Z,4.17
2018-06-27T05:15:50.825Z,5.00
2018-06-27T05:18:19.743Z,4.30
2018-06-27T05:20:48.718Z,4.53
2018-06-27T05:23:17.660Z,4.25
2018-06-27T05:25:46.635Z,4.87
2018-06-27T05:28:15.702Z,4.97
2018-06-27T05:30:44.641Z,5.00
2018-06-27T05:33:13.522Z,4.28
2018-06-27T05:35:42.473Z,5.15
2018-06-27T05:38:11.414Z,6.72
2018-06-27T05:40:40.314Z,4.70
2018-06-27T05:43:09.187Z,5.12
2018-06-27T05:45:38.095Z,4.10
2018-06-27T05:48:07.002Z,4.10
2018-06-27T05:50:35.919Z,8.88
2018-06-27T05:53:04.954Z,4.70
2018-06-27T05:55:33.833Z,7.60
2018-06-27T05:58:02.457Z,8.23
2018-06-27T06:00:31.217Z,4.25
2018-06-27T06:03:00.126Z,4.50
2018-06-27T06:05:29.006Z,4.80
2018-06-27T06:07:57.900Z,4.12
2018-06-27T06:10:26.797Z,3.47
2018-06-27T06:12:55.718Z,4.15
2018-06-27T06:15:30.725Z,4.15
2018-06-27T06:18:05.882Z,3.90
2018-06-27T06:20:41.117Z,3.87
2018-06-27T06:23:16.285Z,3.52
2018-06-27T06:25:51.410Z,4.45
2018-06-27T06:28:26.659Z,4.65
2018-06-27T06:30:55.589Z,4.28
2018-06-27T06:33:24.478Z,5.78
2018-06-27T06:35:53.458Z,3.30
2018-06-27T06:38:22.366Z,3.70
2018-06-27T06:40:51.350Z,4.05
2018-06-27T06:43:20.478Z,3.85
2018-06-27T06:45:49.410Z,3.77
2018-06-27T06:48:18.342Z,2.60
2018-06-27T06:50:47.235Z,3.30
2018-06-27T06:53:16.206Z,5.92
2018-06-27T06:55:45.110Z,2.55
2018-06-27T06:58:15.682Z,2.52
2018-06-27T07:00:44.582Z,2.30
2018-06-27T07:03:13.477Z,2.08
2018-06-27T07:05:42.363Z,2.12
2018-06-27T07:08:11.309Z,4.20
2018-06-27T07:10:40.186Z,2.58
2018-06-27T07:13:09.077Z,2.50
2018-06-27T07:15:38.009Z,2.55
2018-06-27T07:18:06.984Z,3.40
2018-06-27T07:20:35.594Z,3.02
2018-06-27T07:23:04.422Z,1.67
2018-06-27T07:25:33.291Z,2.22
2018-06-27T07:28:02.218Z,2.17
2018-06-27T07:30:31.270Z,2.58
2018-06-27T07:33:00.179Z,8.05
2018-06-27T07:35:29.062Z,2.22
2018-06-27T07:37:57.950Z,2.52
2018-06-27T07:40:26.862Z,2.02
2018-06-27T07:42:55.779Z,2.12
2018-06-27T07:45:24.695Z,1.80
2018-06-27T07:47:53.594Z,1.90
2018-06-27T07:50:22.627Z,1.80
2018-06-27T07:52:51.571Z,1.60
2018-06-27T07:55:20.491Z,2.60
2018-06-27T07:57:49.517Z,4.60
2018-06-27T08:00:18.403Z,1.60
2018-06-27T08:02:47.365Z,2.40
2018-06-27T08:05:16.288Z,1.70
2018-06-27T08:07:45.331Z,1.50
2018-06-27T08:10:14.219Z,1.60
2018-06-27T08:12:43.203Z,1.70
2018-06-27T08:15:12.003Z,2.55
2018-06-27T08:17:40.958Z,1.67
2018-06-27T08:20:09.795Z,1.98
2018-06-27T08:22:38.694Z,2.05
2018-06-27T08:25:07.590Z,1.52
2018-06-27T08:27:36.516Z,1.40
2018-06-27T08:30:06.266Z,1.60
2018-06-27T08:32:35.183Z,1.80
2018-06-27T08:35:04.082Z,2.43
2018-06-27T08:37:32.978Z,1.50
2018-06-27T08:40:01.881Z,1.70
2018-06-27T08:42:30.790Z,1.85
2018-06-27T08:44:59.695Z,2.27
2018-06-27T08:47:28.580Z,1.50
2018-06-27T08:49:57.547Z,1.77
2018-06-27T08:52:26.375Z,2.67
2018-06-27T08:54:55.266Z,1.57
2018-06-27T08:57:24.176Z,2.00
2018-06-27T08:59:53.078Z,1.42
2018-06-27T09:02:22.158Z,1.77
2018-06-27T09:04:51.102Z,2.07
2018-06-27T09:07:20.174Z,1.67
2018-06-27T09:09:49.527Z,2.30
2018-06-27T09:12:18.522Z,1.60
2018-06-27T09:14:47.490Z,1.63
2018-06-27T09:17:16.510Z,1.42
2018-06-27T09:19:45.423Z,2.15
2018-06-27T09:22:14.487Z,1.42
2018-06-27T09:24:43.382Z,1.70
2018-06-27T09:27:12.270Z,1.37
2018-06-27T09:29:41.170Z,1.52
2018-06-27T09:32:10.043Z,4.23
2018-06-27T09:34:38.973Z,2.87
2018-06-27T09:37:07.999Z,2.67
2018-06-27T09:39:36.883Z,2.03
2018-06-27T09:42:05.888Z,3.03
2018-06-27T09:44:34.678Z,2.00
2018-06-27T09:47:03.337Z,2.43
2018-06-27T09:49:32.204Z,1.40
2018-06-27T09:52:01.099Z,1.30
2018-06-27T09:54:30.023Z,1.13
2018-06-27T09:56:58.924Z,1.53
2018-06-27T09:59:27.778Z,1.53
2018-06-27T10:01:56.675Z,3.93
2018-06-27T10:04:25.567Z,1.37
2018-06-27T10:06:54.619Z,1.37
2018-06-27T10:09:23.502Z,1.30
2018-06-27T10:11:52.409Z,1.10
2018-06-27T10:14:21.345Z,1.30
2018-06-27T10:16:50.388Z,1.47
2018-06-27T10:19:19.340Z,1.37
2018-06-27T10:21:48.727Z,1.60
2018-06-27T10:24:17.669Z,1.70
2018-06-27T10:26:46.644Z,1.53
2018-06-27T10:29:18.538Z,2.57
2018-06-27T10:31:49.504Z,1.33
2018-06-27T10:36:58.246Z,1.40
2018-06-27T10:39:37.143Z,1.43
2018-06-27T10:42:10.487Z,2.37
2018-06-27T10:44:45.423Z,1.30
2018-06-27T10:47:18.024Z,1.33
2018-06-27T10:49:47.030Z,1.47
2018-06-27T10:52:15.942Z,1.50
2018-06-27T10:54:50.113Z,1.70
2018-06-27T10:57:19.444Z,1.80
2018-06-27T10:59:49.022Z,1.73
2018-06-27T11:02:19.911Z,1.50
2018-06-27T11:04:49.051Z,1.63
2018-06-27T11:07:17.995Z,1.33
2018-06-27T11:09:46.939Z,2.37
2018-06-27T11:12:15.941Z,2.17
2018-06-27T11:14:44.827Z,1.83
2018-06-27T11:17:13.707Z,1.83
2018-06-27T11:19:43.258Z,1.60
2018-06-27T11:22:12.134Z,1.90
2018-06-27T11:24:41.053Z,1.50
2018-06-27T11:27:10.079Z,1.53
2018-06-27T11:29:41.190Z,1.40
2018-06-27T11:32:10.067Z,1.60
2018-06-27T11:34:39.971Z,2.90
2018-06-27T11:37:09.645Z,1.63
2018-06-27T11:39:38.442Z,2.10
2018-06-27T11:42:07.346Z,1.90
2018-06-27T11:44:36.308Z,1.83
2018-06-27T11:47:05.178Z,1.60
2018-06-27T11:49:34.049Z,1.80
2018-06-27T11:52:02.939Z,1.70
2018-06-27T11:54:31.822Z,1.80
2018-06-27T11:57:00.698Z,1.67
2018-06-27T11:59:30.017Z,2.70
2018-06-27T12:01:59.225Z,1.93
2018-06-27T12:04:28.138Z,1.97
2018-06-27T12:06:57.043Z,1.80
2018-06-27T12:09:25.939Z,3.10
2018-06-27T12:11:54.819Z,4.07
2018-06-27T12:14:23.841Z,1.90
2018-06-27T12:16:52.760Z,1.70
2018-06-27T12:19:21.658Z,2.13
2018-06-27T12:21:50.638Z,1.60
2018-06-27T12:24:19.984Z,4.90
2018-06-27T12:26:48.934Z,1.60
2018-06-27T12:29:17.881Z,1.70
2018-06-27T12:31:46.832Z,1.60
2018-06-27T12:34:16.008Z,1.93
2018-06-27T12:36:45.039Z,2.23
2018-06-27T12:39:13.944Z,1.87
2018-06-27T12:41:42.822Z,2.77
2018-06-27T12:44:11.731Z,2.07
2018-06-27T12:46:40.641Z,2.10
2018-06-27T12:49:09.522Z,2.20
2018-06-27T12:51:38.442Z,1.80
2018-06-27T12:54:07.403Z,9.23
2018-06-27T12:56:36.286Z,2.17
2018-06-27T12:59:05.220Z,2.70
2018-06-27T13:01:34.338Z,2.40
2018-06-27T13:04:03.251Z,3.67
2018-06-27T13:06:32.246Z,1.40
2018-06-27T13:09:01.200Z,1.67
2018-06-27T13:11:30.129Z,2.10
2018-06-27T13:13:59.015Z,1.40
2018-06-27T13:16:28.055Z,2.70
2018-06-27T13:18:57.061Z,2.90
2018-06-27T13:21:25.979Z,1.40
2018-06-27T13:23:54.909Z,2.57
2018-06-27T13:26:23.787Z,1.30
2018-06-27T13:28:52.730Z,4.03
2018-06-27T13:31:21.710Z,3.60
2018-06-27T13:33:50.683Z,2.73
2018-06-27T13:36:19.610Z,1.87
2018-06-27T13:38:48.798Z,1.90
2018-06-27T13:41:17.832Z,2.10
2018-06-27T13:43:46.863Z,1.83
2018-06-27T13:46:15.970Z,2.60
2018-06-27T13:48:45.109Z,3.73
2018-06-27T13:51:13.991Z,1.20
2018-06-27T13:53:42.959Z,2.20
2018-06-27T13:56:11.883Z,1.63
2018-06-27T13:58:40.816Z,3.27
2018-06-27T14:01:09.737Z,3.43
2018-06-27T14:03:38.690Z,2.27
2018-06-27T14:06:07.649Z,2.10
2018-06-27T14:08:36.650Z,3.30
2018-06-27T14:11:05.571Z,1.70
2018-06-27T14:13:34.462Z,2.20
2018-06-27T14:16:03.370Z,3.93
2018-06-27T14:18:31.970Z,1.90
2018-06-27T14:21:00.952Z,1.50
2018-06-27T14:23:29.830Z,1.93
2018-06-27T14:25:58.790Z,1.70
2018-06-27T14:28:27.955Z,1.87
2018-06-27T14:30:56.862Z,2.10
2018-06-27T14:33:25.750Z,1.63
2018-06-27T14:35:54.732Z,1.97
2018-06-27T14:38:23.614Z,1.63
2018-06-27T14:40:52.224Z,1.50
2018-06-27T14:43:21.067Z,1.60
2018-06-27T14:45:50.370Z,1.77
2018-06-27T14:48:19.411Z,3.27
2018-06-27T14:50:48.419Z,1.40
2018-06-27T14:53:17.351Z,3.57
2018-06-27T14:55:46.466Z,1.70
2018-06-27T14:58:15.585Z,1.03
2018-06-27T15:00:44.225Z,3.47
2018-06-27T15:03:13.067Z,3.70
2018-06-27T15:05:42.043Z,3.70
2018-06-27T15:08:11.134Z,1.60
2018-06-27T15:10:40.297Z,1.93
2018-06-27T15:13:09.199Z,1.40
2018-06-27T15:15:38.103Z,1.63
2018-06-27T15:18:07.001Z,1.50
2018-06-27T15:20:35.916Z,1.83
2018-06-27T15:23:04.606Z,1.60
2018-06-27T16:08:25.506Z,1.80
2018-06-27T16:10:54.411Z,1.50
2018-06-27T16:13:23.318Z,1.30
2018-06-27T16:15:52.275Z,1.30
2018-06-27T16:18:21.182Z,1.20
2018-06-27T16:20:50.154Z,1.30
2018-06-27T16:23:19.082Z,3.83
2018-06-27T16:25:48.118Z,1.60
2018-06-27T16:28:17.055Z,1.40
2018-06-27T16:30:45.993Z,2.20
2018-06-27T16:33:14.928Z,1.20
2018-06-27T16:35:43.825Z,1.50
2018-06-27T16:38:12.704Z,1.60
2018-06-27T16:40:41.651Z,10.63
2018-06-27T16:43:10.607Z,1.50
2018-06-27T16:45:39.486Z,3.87
2018-06-27T16:48:08.354Z,1.93
2018-06-27T16:50:37.340Z,2.97
2018-06-27T16:53:06.198Z,1.80
2018-06-27T16:55:35.083Z,1.70
2018-06-27T16:58:04.130Z,1.80
2018-06-27T17:00:33.074Z,2.23
2018-06-27T17:03:02.167Z,2.43
2018-06-27T17:05:30.753Z,2.03
2018-06-27T17:07:59.564Z,1.70
2018-06-27T17:10:28.467Z,2.98
2018-06-27T17:12:57.460Z,1.47
2018-06-27T17:15:26.309Z,1.80
2018-06-27T17:17:55.196Z,1.83
2018-06-27T17:20:24.095Z,3.02
2018-06-27T17:22:53.014Z,1.42
2018-06-27T17:25:22.014Z,2.40
2018-06-27T17:27:50.894Z,1.80
2018-06-27T17:30:19.902Z,2.10
2018-06-27T17:32:48.839Z,1.50
2018-06-27T17:35:17.839Z,1.50
2018-06-27T17:37:46.839Z,2.55
2018-06-27T17:40:15.838Z,1.75
2018-06-27T17:42:44.761Z,2.08
2018-06-27T17:45:13.720Z,1.55
2018-06-27T17:47:42.674Z,1.40
2018-06-27T17:50:11.599Z,2.35
2018-06-27T17:52:40.675Z,1.87
2018-06-27T17:55:09.615Z,2.10
2018-06-27T17:57:38.563Z,1.30
2018-06-27T18:00:07.558Z,2.30
2018-06-27T18:02:36.490Z,1.70
2018-06-27T18:05:05.414Z,1.80
2018-06-27T18:07:34.418Z,3.17
2018-06-27T18:10:03.476Z,1.47
2018-06-27T18:12:32.446Z,1.60
2018-06-27T18:15:01.481Z,1.57
2018-06-27T18:17:30.417Z,1.85
2018-06-27T18:19:59.395Z,1.80
2018-06-27T18:22:28.073Z,2.00
2018-06-27T18:24:56.951Z,1.87
2018-06-27T18:27:26.064Z,4.05
2018-06-27T18:29:55.703Z,1.85
2018-06-27T18:32:24.997Z,1.95
2018-06-27T18:34:53.958Z,1.45
2018-06-27T18:37:23.087Z,1.65
2018-06-27T18:39:52.331Z,2.00
2018-06-27T18:42:22.399Z,1.72
2018-06-27T18:44:51.570Z,3.47
2018-06-27T18:47:20.562Z,2.08
2018-06-27T18:49:49.507Z,2.00
2018-06-27T18:52:18.472Z,1.50
2018-06-27T18:54:47.645Z,1.62
2018-06-27T18:57:16.762Z,1.70
2018-06-27T18:59:46.081Z,2.33
2018-06-27T19:02:15.095Z,2.00
2018-06-27T19:04:44.069Z,1.77
2018-06-27T19:07:13.022Z,1.80
2018-06-27T19:09:41.991Z,2.15
2018-06-27T19:12:10.941Z,2.65
2018-06-27T19:14:39.838Z,1.70
2018-06-27T19:17:08.770Z,2.00
2018-06-27T19:19:38.836Z,2.47
2018-06-27T19:22:07.803Z,1.98
2018-06-27T19:24:36.838Z,2.10
2018-06-27T19:27:06.098Z,3.35
2018-06-27T19:29:35.015Z,1.80
2018-06-27T19:32:04.010Z,3.35
2018-06-27T19:34:32.959Z,2.12
2018-06-27T19:37:01.918Z,2.20
2018-06-27T19:39:37.459Z,2.15
2018-06-27T19:41:59.838Z,2.30
2018-06-27T19:44:28.738Z,2.47
2018-06-27T19:46:57.788Z,4.90
2018-06-27T19:49:26.367Z,2.40
2018-06-27T19:51:55.182Z,2.10
2018-06-27T19:54:24.120Z,2.80
2018-06-27T19:56:53.314Z,2.80
2018-06-27T19:59:24.469Z,2.50
2018-06-27T20:01:53.558Z,2.67
2018-06-27T20:04:22.233Z,2.30
2018-06-27T20:06:51.200Z,2.47
2018-06-27T20:09:20.326Z,2.92
2018-06-27T20:11:49.933Z,2.20
2018-06-27T20:14:18.955Z,2.60
2018-06-27T20:16:47.946Z,3.02
2018-06-27T20:19:16.991Z,2.60
2018-06-27T20:21:46.624Z,2.45
2018-06-27T20:24:15.784Z,3.15
2018-06-27T20:26:44.698Z,2.42
2018-06-27T20:29:13.608Z,2.60
2018-06-27T20:31:42.524Z,2.83
2018-06-27T20:34:11.395Z,2.30
2018-06-27T20:36:40.348Z,2.60
2018-06-27T20:39:10.062Z,2.67
2018-06-27T20:41:39.991Z,2.60
2018-06-27T20:44:09.080Z,2.17
2018-06-27T20:46:38.015Z,2.52
2018-06-27T20:49:07.000Z,2.50
2018-06-27T20:51:35.902Z,2.52
2018-06-27T20:54:05.083Z,2.70
2018-06-27T20:56:36.515Z,2.90
2018-06-27T20:59:05.482Z,3.15
2018-06-27T21:01:34.755Z,2.85
2018-06-27T21:04:03.807Z,2.85
2018-06-27T21:06:32.822Z,2.90
2018-06-27T21:09:01.839Z,2.50
2018-06-27T21:11:30.746Z,2.40
2018-06-27T21:13:59.626Z,3.10
2018-06-27T21:16:28.507Z,3.83
2018-06-27T21:18:57.458Z,2.60
2018-06-27T21:21:26.445Z,2.22
2018-06-27T21:23:55.363Z,2.67
2018-06-27T21:26:24.282Z,2.37
2018-06-27T21:28:53.264Z,3.12
2018-06-27T21:31:22.147Z,3.85
2018-06-27T21:33:51.130Z,2.40
2018-06-27T21:36:20.110Z,2.62
2018-06-27T21:38:49.058Z,5.30
2018-06-27T21:41:18.016Z,2.67
2018-06-27T21:43:46.657Z,3.90
2018-06-27T21:46:15.471Z,4.22
2018-06-27T21:48:44.469Z,3.10
2018-06-27T21:51:13.344Z,2.80
2018-06-27T21:53:42.430Z,3.33
2018-06-27T21:56:11.390Z,3.50
2018-06-27T21:58:40.376Z,3.60
2018-06-27T22:01:09.302Z,6.62
2018-06-27T22:03:38.228Z,3.40
2018-06-27T22:06:07.150Z,3.12
2018-06-27T22:08:36.394Z,3.37
2018-06-27T22:11:05.283Z,2.75
2018-06-27T22:13:34.174Z,3.98
2018-06-27T22:16:03.132Z,3.30
2018-06-27T22:18:32.103Z,3.35
2018-06-27T22:21:01.018Z,3.25
2018-06-27T22:23:29.925Z,3.25
2018-06-27T22:25:58.779Z,3.20
2018-06-27T22:28:27.688Z,3.10
2018-06-27T22:30:56.582Z,3.87
2018-06-27T22:33:25.651Z,3.27
2018-06-27T22:35:54.534Z,3.00
2018-06-27T22:38:23.462Z,4.15
2018-06-27T22:40:52.347Z,3.37
2018-06-27T22:43:21.399Z,3.30
2018-06-27T22:45:50.291Z,3.62
2018-06-27T22:48:19.249Z,4.00
2018-06-27T22:50:48.190Z,3.20
2018-06-27T22:53:17.110Z,3.27
2018-06-27T22:55:46.181Z,3.85
2018-06-27T22:58:16.123Z,3.10
2018-06-27T23:00:45.027Z,3.55
2018-06-27T23:03:14.016Z,3.10
2018-06-27T23:05:42.915Z,3.50
2018-06-27T23:08:11.823Z,4.70
2018-06-27T23:10:40.732Z,3.75
2018-06-27T23:13:09.755Z,3.80
2018-06-27T23:15:38.790Z,3.60
2018-06-27T23:18:07.686Z,5.05
2018-06-27T23:20:36.587Z,3.87
2018-06-27T23:23:05.554Z,3.95
2018-06-27T23:25:34.506Z,5.95
2018-06-27T23:28:03.402Z,3.92
2018-06-27T23:30:32.281Z,4.20
2018-06-27T23:33:01.220Z,4.30
2018-06-27T23:35:30.099Z,4.15
2018-06-27T23:37:59.018Z,4.10
2018-06-27T23:40:28.978Z,4.05
2018-06-27T23:42:57.906Z,4.90
2018-06-27T23:45:26.823Z,6.92
2018-06-27T23:47:55.702Z,3.98
2018-06-27T23:50:24.595Z,4.35
2018-06-27T23:52:53.809Z,4.95
2018-06-27T23:55:22.628Z,3.92
2018-06-27T23:57:51.576Z,4.15
